sensor_id;sensor_type;location;lat;lon;timestamp;pressure;altitude;pressure_sealevel;temperature;humidity
24013;BME280;12220;50.194;18.948;2023-04-09T00:01:39;102554.77;;;7.81;72.53
24013;BME280;12220;50.194;18.948;2023-04-09T00:03:41;102550.24;;;7.80;72.52
24013;BME280;12220;50.194;18.948;2023-04-09T00:05:42;102543.06;;;7.78;72.51
24013;BME280;12220;50.194;18.948;2023-04-09T00:07:52;102545.80;;;7.78;72.58
24013;BME280;12220;50.194;18.948;2023-04-09T00:09:54;102544.94;;;7.76;72.69
24013;BME280;12220;50.194;18.948;2023-04-09T00:11:58;102545.90;;;7.75;72.74
24013;BME280;12220;50.194;18.948;2023-04-09T00:14:00;102546.74;;;7.77;72.78
24013;BME280;12220;50.194;18.948;2023-04-09T00:16:07;102550.30;;;7.79;72.77
24013;BME280;12220;50.194;18.948;2023-04-09T00:18:09;102537.63;;;7.78;72.78
24013;BME280;12220;50.194;18.948;2023-04-09T00:20:10;102543.91;;;7.80;72.79
24013;BME280;12220;50.194;18.948;2023-04-09T00:22:12;102533.92;;;7.79;72.67
24013;BME280;12220;50.194;18.948;2023-04-09T00:24:23;102540.39;;;7.76;72.54
24013;BME280;12220;50.194;18.948;2023-04-09T00:26:24;102547.70;;;7.74;72.62
24013;BME280;12220;50.194;18.948;2023-04-09T00:28:27;102556.86;;;7.72;72.72
24013;BME280;12220;50.194;18.948;2023-04-09T00:30:29;102553.26;;;7.71;72.80
24013;BME280;12220;50.194;18.948;2023-04-09T00:32:38;102561.44;;;7.71;72.79
24013;BME280;12220;50.194;18.948;2023-04-09T00:34:39;102561.48;;;7.70;72.66
24013;BME280;12220;50.194;18.948;2023-04-09T00:36:40;102555.23;;;7.66;72.67
24013;BME280;12220;50.194;18.948;2023-04-09T00:38:42;102558.94;;;7.63;72.75
24013;BME280;12220;50.194;18.948;2023-04-09T00:40:53;102551.69;;;7.62;72.80
24013;BME280;12220;50.194;18.948;2023-04-09T00:42:54;102559.03;;;7.60;72.86
24013;BME280;12220;50.194;18.948;2023-04-09T00:44:59;102560.84;;;7.60;72.89
24013;BME280;12220;50.194;18.948;2023-04-09T00:47:01;102569.03;;;7.60;72.90
24013;BME280;12220;50.194;18.948;2023-04-09T00:49:08;102569.07;;;7.58;72.92
24013;BME280;12220;50.194;18.948;2023-04-09T00:51:09;102563.66;;;7.57;72.97
24013;BME280;12220;50.194;18.948;2023-04-09T00:53:11;102574.57;;;7.57;73.00
24013;BME280;12220;50.194;18.948;2023-04-09T00:55:13;102572.75;;;7.57;72.99
24013;BME280;12220;50.194;18.948;2023-04-09T00:57:23;102565.50;;;7.56;72.97
24013;BME280;12220;50.194;18.948;2023-04-09T00:59:24;102567.31;;;7.56;72.94
24013;BME280;12220;50.194;18.948;2023-04-09T01:01:26;102567.36;;;7.54;72.82
24013;BME280;12220;50.194;18.948;2023-04-09T01:03:30;102562.88;;;7.53;72.77
24013;BME280;12220;50.194;18.948;2023-04-09T01:05:49;102570.18;;;7.51;72.78
24013;BME280;12220;50.194;18.948;2023-04-09T01:15:10;102572.24;;;7.43;72.56
24013;BME280;12220;50.194;18.948;2023-04-09T01:17:23;102575.13;;;7.37;72.46
24013;BME280;12220;50.194;18.948;2023-04-09T01:21:40;102565.39;;;7.26;72.53
24013;BME280;12220;50.194;18.948;2023-04-09T01:26:16;102567.55;;;7.13;72.60
24013;BME280;12220;50.194;18.948;2023-04-09T01:28:46;102575.85;;;7.09;72.57
24013;BME280;12220;50.194;18.948;2023-04-09T01:30:34;102570.61;;;7.01;72.53
24013;BME280;12220;50.194;18.948;2023-04-09T01:32:37;102569.88;;;6.94;72.73
24013;BME280;12220;50.194;18.948;2023-04-09T01:34:40;102572.67;;;6.91;72.90
24013;BME280;12220;50.194;18.948;2023-04-09T01:36:50;102573.67;;;6.89;73.05
24013;BME280;12220;50.194;18.948;2023-04-09T01:38:51;102572.75;;;6.88;73.14
24013;BME280;12220;50.194;18.948;2023-04-09T01:40:56;102569.10;;;6.89;73.22
24013;BME280;12220;50.194;18.948;2023-04-09T01:43:00;102569.05;;;6.91;73.22
24013;BME280;12220;50.194;18.948;2023-04-09T01:45:03;102565.41;;;6.92;73.21
24013;BME280;12220;50.194;18.948;2023-04-09T01:47:07;102581.73;;;6.93;73.20
24013;BME280;12220;50.194;18.948;2023-04-09T01:49:11;102578.04;;;6.94;73.18
24013;BME280;12220;50.194;18.948;2023-04-09T01:51:13;102607.08;;;6.95;73.14
24013;BME280;12220;50.194;18.948;2023-04-09T01:53:15;102573.46;;;6.96;73.12
24013;BME280;12220;50.194;18.948;2023-04-09T01:55:20;102578.87;;;6.98;73.06
24013;BME280;12220;50.194;18.948;2023-04-09T01:57:21;102572.53;;;6.97;73.05
24013;BME280;12220;50.194;18.948;2023-04-09T01:59:22;102572.53;;;6.97;73.06
24013;BME280;12220;50.194;18.948;2023-04-09T02:01:32;102582.48;;;6.98;73.05
24013;BME280;12220;50.194;18.948;2023-04-09T02:06:06;102581.64;;;6.96;72.94
24013;BME280;12220;50.194;18.948;2023-04-09T02:08:11;102578.04;;;6.94;72.94
24013;BME280;12220;50.194;18.948;2023-04-09T02:10:16;102579.03;;;6.92;72.80
24013;BME280;12220;50.194;18.948;2023-04-09T02:12:20;102576.39;;;6.89;72.75
24013;BME280;12220;50.194;18.948;2023-04-09T02:14:25;102577.39;;;6.85;72.83
24013;BME280;12220;50.194;18.948;2023-04-09T02:16:28;102580.20;;;6.80;72.88
24013;BME280;12220;50.194;18.948;2023-04-09T02:18:34;102573.92;;;6.78;72.94
24013;BME280;12220;50.194;18.948;2023-04-09T02:20:35;102574.88;;;6.75;72.94
24013;BME280;12220;50.194;18.948;2023-04-09T02:22:38;102579.49;;;6.73;72.93
24013;BME280;12220;50.194;18.948;2023-04-09T02:24:40;102568.68;;;6.70;73.01
24013;BME280;12220;50.194;18.948;2023-04-09T02:26:41;102568.75;;;6.67;73.00
24013;BME280;12220;50.194;18.948;2023-04-09T02:28:43;102573.33;;;6.65;73.08
24013;BME280;12220;50.194;18.948;2023-04-09T02:30:53;102567.91;;;6.63;73.10
24013;BME280;12220;50.194;18.948;2023-04-09T02:32:56;102561.59;;;6.63;73.02
24013;BME280;12220;50.194;18.948;2023-04-09T02:34:57;102576.20;;;6.59;73.04
24013;BME280;12220;50.194;18.948;2023-04-09T02:36:58;102569.88;;;6.58;73.15
24013;BME280;12220;50.194;18.948;2023-04-09T02:39:11;102567.19;;;6.57;73.22
24013;BME280;12220;50.194;18.948;2023-04-09T02:41:13;102575.32;;;6.58;73.30
24013;BME280;12220;50.194;18.948;2023-04-09T02:43:15;102570.75;;;6.59;73.33
24013;BME280;12220;50.194;18.948;2023-04-09T02:45:16;102572.55;;;6.60;73.34
24013;BME280;12220;50.194;18.948;2023-04-09T02:47:24;102575.24;;;6.61;73.38
24013;BME280;12220;50.194;18.948;2023-04-09T02:49:27;102564.34;;;6.61;73.38
24013;BME280;12220;50.194;18.948;2023-04-09T02:51:28;102569.73;;;6.65;73.30
24013;BME280;12220;50.194;18.948;2023-04-09T02:53:29;102572.48;;;6.63;73.24
24013;BME280;12220;50.194;18.948;2023-04-09T02:55:39;102574.28;;;6.62;73.24
24013;BME280;12220;50.194;18.948;2023-04-09T02:57:40;102576.13;;;6.62;73.24
24013;BME280;12220;50.194;18.948;2023-04-09T02:59:41;102572.52;;;6.61;73.28
24013;BME280;12220;50.194;18.948;2023-04-09T03:01:43;102570.68;;;6.62;73.31
24013;BME280;12220;50.194;18.948;2023-04-09T03:03:54;102574.28;;;6.62;73.35
24013;BME280;12220;50.194;18.948;2023-04-09T03:05:55;102576.13;;;6.62;73.38
24013;BME280;12220;50.194;18.948;2023-04-09T03:07:57;102574.28;;;6.62;73.43
24013;BME280;12220;50.194;18.948;2023-04-09T03:09:58;102577.88;;;6.65;73.43
24013;BME280;12220;50.194;18.948;2023-04-09T03:12:09;102576.95;;;6.66;73.44
24013;BME280;12220;50.194;18.948;2023-04-09T03:14:10;102572.40;;;6.66;73.40
24013;BME280;12220;50.194;18.948;2023-04-09T03:16:12;102580.56;;;6.66;73.35
24013;BME280;12220;50.194;18.948;2023-04-09T03:18:13;102580.56;;;6.66;73.35
24013;BME280;12220;50.194;18.948;2023-04-09T03:20:24;102576.95;;;6.66;73.34
24013;BME280;12220;50.194;18.948;2023-04-09T03:22:25;102579.73;;;6.62;73.31
24013;BME280;12220;50.194;18.948;2023-04-09T03:24:27;102577.09;;;6.59;73.33
24013;BME280;12220;50.194;18.948;2023-04-09T03:26:28;102578.97;;;6.57;73.35
24013;BME280;12220;50.194;18.948;2023-04-09T03:28:39;102579.04;;;6.54;73.38
24013;BME280;12220;50.194;18.948;2023-04-09T03:30:40;102576.43;;;6.50;73.47
24013;BME280;12220;50.194;18.948;2023-04-09T03:32:42;102574.67;;;6.47;73.48
24013;BME280;12220;50.194;18.948;2023-04-09T03:34:43;102573.79;;;6.45;73.52
24013;BME280;12220;50.194;18.948;2023-04-09T03:36:54;102575.67;;;6.43;73.59
24013;BME280;12220;50.194;18.948;2023-04-09T03:38:56;102572.09;;;6.41;73.71
24013;BME280;12220;50.194;18.948;2023-04-09T03:40:57;102582.98;;;6.41;73.84
24013;BME280;12220;50.194;18.948;2023-04-09T03:42:58;102572.98;;;6.41;73.90
24013;BME280;12220;50.194;18.948;2023-04-09T03:45:12;102581.12;;;6.43;73.81
24013;BME280;12220;50.194;18.948;2023-04-09T03:47:15;102574.78;;;6.42;73.84
24013;BME280;12220;50.194;18.948;2023-04-09T03:49:16;102573.83;;;6.43;73.89
24013;BME280;12220;50.194;18.948;2023-04-09T03:51:17;102570.14;;;6.46;73.92
24013;BME280;12220;50.194;18.948;2023-04-09T03:53:24;102568.34;;;6.47;73.82
24013;BME280;12220;50.194;18.948;2023-04-09T03:55:26;102574.67;;;6.47;73.79
24013;BME280;12220;50.194;18.948;2023-04-09T03:57:28;102573.79;;;6.45;73.81
24013;BME280;12220;50.194;18.948;2023-04-09T03:59:29;102573.79;;;6.45;73.90
24013;BME280;12220;50.194;18.948;2023-04-09T04:01:39;102578.34;;;6.44;73.97
24013;BME280;12220;50.194;18.948;2023-04-09T04:03:43;102580.15;;;6.45;74.04
24013;BME280;12220;50.194;18.948;2023-04-09T04:05:45;102579.23;;;6.47;74.08
24013;BME280;12220;50.194;18.948;2023-04-09T04:07:46;102580.10;;;6.47;74.10
24013;BME280;12220;50.194;18.948;2023-04-09T04:09:57;102590.97;;;6.49;74.13
24013;BME280;12220;50.194;18.948;2023-04-09T04:12:00;102582.80;;;6.49;74.17
24013;BME280;12220;50.194;18.948;2023-04-09T04:14:02;102581.84;;;6.51;74.24
24013;BME280;12220;50.194;18.948;2023-04-09T04:16:10;102584.52;;;6.53;74.26
24013;BME280;12220;50.194;18.948;2023-04-09T04:18:11;102579.97;;;6.53;74.21
24013;BME280;12220;50.194;18.948;2023-04-09T04:20:13;102579.04;;;6.54;74.18
24013;BME280;12220;50.194;18.948;2023-04-09T04:22:15;102577.23;;;6.53;74.17
24013;BME280;12220;50.194;18.948;2023-04-09T04:24:16;102569.99;;;6.52;74.22
24013;BME280;12220;50.194;18.948;2023-04-09T04:26:27;102580.88;;;6.52;74.27
24013;BME280;12220;50.194;18.948;2023-04-09T04:28:29;102580.88;;;6.52;74.31
24013;BME280;12220;50.194;18.948;2023-04-09T04:30:30;102587.24;;;6.53;74.53
24013;BME280;12220;50.194;18.948;2023-04-09T04:32:32;102590.80;;;6.55;74.38
24013;BME280;12220;50.194;18.948;2023-04-09T04:34:40;102588.09;;;6.55;74.40
24013;BME280;12220;50.194;18.948;2023-04-09T04:36:41;102592.56;;;6.57;74.40
24013;BME280;12220;50.194;18.948;2023-04-09T04:38:42;102590.73;;;6.58;74.34
24013;BME280;12220;50.194;18.948;2023-04-09T04:40:44;102587.13;;;6.57;74.37
24013;BME280;12220;50.194;18.948;2023-04-09T04:42:58;102598.81;;;6.61;74.41
24013;BME280;12220;50.194;18.948;2023-04-09T04:44:59;102597.02;;;6.61;74.46
24013;BME280;12220;50.194;18.948;2023-04-09T04:47:00;102600.59;;;6.63;74.43
24013;BME280;12220;50.194;18.948;2023-04-09T04:49:04;102602.38;;;6.65;74.37
24013;BME280;12220;50.194;18.948;2023-04-09T04:51:10;102599.66;;;6.65;74.37
24013;BME280;12220;50.194;18.948;2023-04-09T04:53:11;102599.66;;;6.65;74.41
24013;BME280;12220;50.194;18.948;2023-04-09T04:55:12;102600.54;;;6.65;74.47
24013;BME280;12220;50.194;18.948;2023-04-09T04:57:14;102601.41;;;6.67;74.48
24013;BME280;12220;50.194;18.948;2023-04-09T04:59:25;102595.98;;;6.67;74.41
24013;BME280;12220;50.194;18.948;2023-04-09T05:01:26;102511.81;;;6.19;74.41
24013;BME280;12220;50.194;18.948;2023-04-09T05:03:28;102588.77;;;6.65;74.58
24013;BME280;12220;50.194;18.948;2023-04-09T05:05:30;102596.02;;;6.66;74.68
24013;BME280;12220;50.194;18.948;2023-04-09T05:07:40;102585.13;;;6.66;74.77
24013;BME280;12220;50.194;18.948;2023-04-09T05:09:41;102600.52;;;6.67;74.86
24013;BME280;12220;50.194;18.948;2023-04-09T05:11:44;102600.46;;;6.68;74.91
24013;BME280;12220;50.194;18.948;2023-04-09T05:13:45;102604.06;;;6.70;74.92
24013;BME280;12220;50.194;18.948;2023-04-09T05:15:58;102605.84;;;6.71;74.94
24013;BME280;12220;50.194;18.948;2023-04-09T05:17:59;102608.51;;;6.74;75.02
24013;BME280;12220;50.194;18.948;2023-04-09T05:20:01;102610.28;;;6.75;75.06
24013;BME280;12220;50.194;18.948;2023-04-09T05:22:03;102602.08;;;6.77;75.10
24013;BME280;12220;50.194;18.948;2023-04-09T05:24:10;102604.71;;;6.80;75.14
24013;BME280;12220;50.194;18.948;2023-04-09T05:26:12;102612.88;;;6.80;75.20
24013;BME280;12220;50.194;18.948;2023-04-09T05:28:14;102612.93;;;6.78;75.24
24013;BME280;12220;50.194;18.948;2023-04-09T05:30:16;102609.31;;;6.78;75.29
24013;BME280;12220;50.194;18.948;2023-04-09T05:32:25;102609.31;;;6.78;75.36
24013;BME280;12220;50.194;18.948;2023-04-09T05:34:27;102618.32;;;6.80;75.44
24013;BME280;12220;50.194;18.948;2023-04-09T05:36:28;102616.48;;;6.82;75.37
24013;BME280;12220;50.194;18.948;2023-04-09T05:38:29;102620.97;;;6.85;75.53
24013;BME280;12220;50.194;18.948;2023-04-09T05:40:40;102623.57;;;6.89;75.58
24013;BME280;12220;50.194;18.948;2023-04-09T05:42:45;102615.37;;;6.91;75.60
24013;BME280;12220;50.194;18.948;2023-04-09T05:44:46;102618.01;;;6.94;75.60
24013;BME280;12220;50.194;18.948;2023-04-09T05:46:48;102617.08;;;6.95;75.56
24013;BME280;12220;50.194;18.948;2023-04-09T05:48:56;102622.53;;;6.95;75.68
24013;BME280;12220;50.194;18.948;2023-04-09T05:50:57;102617.97;;;6.95;75.75
24013;BME280;12220;50.194;18.948;2023-04-09T05:52:58;102619.77;;;6.96;75.84
24013;BME280;12220;50.194;18.948;2023-04-09T05:55:00;102622.41;;;7.00;75.88
24013;BME280;12220;50.194;18.948;2023-04-09T05:57:11;102625.93;;;7.03;75.90
24013;BME280;12220;50.194;18.948;2023-04-09T05:59:12;102628.63;;;7.05;75.93
24013;BME280;12220;50.194;18.948;2023-04-09T06:01:14;102630.42;;;7.06;75.96
24013;BME280;12220;50.194;18.948;2023-04-09T06:03:15;102633.11;;;7.07;75.99
24013;BME280;12220;50.194;18.948;2023-04-09T06:05:26;102633.95;;;7.11;76.05
24013;BME280;12220;50.194;18.948;2023-04-09T06:07:29;102634.74;;;7.14;76.08
24013;BME280;12220;50.194;18.948;2023-04-09T06:09:30;102631.01;;;7.19;76.12
24013;BME280;12220;50.194;18.948;2023-04-09T06:11:31;102626.37;;;7.22;76.13
24013;BME280;12220;50.194;18.948;2023-04-09T06:13:41;102633.52;;;7.26;76.13
24013;BME280;12220;50.194;18.948;2023-04-09T06:15:42;102625.27;;;7.29;76.17
24013;BME280;12220;50.194;18.948;2023-04-09T06:17:44;102628.82;;;7.33;76.22
24013;BME280;12220;50.194;18.948;2023-04-09T06:19:45;102630.49;;;7.39;76.23
24013;BME280;12220;50.194;18.948;2023-04-09T06:21:56;102629.49;;;7.43;76.19
24013;BME280;12220;50.194;18.948;2023-04-09T06:23:57;102646.64;;;7.46;76.16
24013;BME280;12220;50.194;18.948;2023-04-09T06:25:59;102642.02;;;7.50;76.11
24013;BME280;12220;50.194;18.948;2023-04-09T06:28:01;102637.37;;;7.54;76.12
24013;BME280;12220;50.194;18.948;2023-04-09T06:30:11;102645.41;;;7.58;76.06
24013;BME280;12220;50.194;18.948;2023-04-09T06:32:13;102652.66;;;7.59;76.10
24013;BME280;12220;50.194;18.948;2023-04-09T06:34:14;102638.99;;;7.61;76.12
24013;BME280;12220;50.194;18.948;2023-04-09T06:36:16;102647.03;;;7.65;76.16
24013;BME280;12220;50.194;18.948;2023-04-09T06:38:27;102641.45;;;7.70;76.16
24013;BME280;12220;50.194;18.948;2023-04-09T06:40:29;102649.54;;;7.73;76.17
24013;BME280;12220;50.194;18.948;2023-04-09T06:42:30;102450.02;;;6.61;76.05
24013;BME280;12220;50.194;18.948;2023-04-09T06:44:35;102652.08;;;7.81;76.14
24013;BME280;12220;50.194;18.948;2023-04-09T06:46:41;102652.88;;;7.84;76.12
24013;BME280;12220;50.194;18.948;2023-04-09T06:48:43;102656.47;;;7.87;76.13
24013;BME280;12220;50.194;18.948;2023-04-09T06:50:44;102653.65;;;7.90;76.14
24013;BME280;12220;50.194;18.948;2023-04-09T06:52:46;102655.31;;;7.95;76.17
24013;BME280;12220;50.194;18.948;2023-04-09T06:54:56;102475.76;;;6.83;76.07
24013;BME280;12220;50.194;18.948;2023-04-09T06:56:58;102653.23;;;8.03;76.22
24013;BME280;12220;50.194;18.948;2023-04-09T06:59:01;102654.06;;;8.07;76.20
24013;BME280;12220;50.194;18.948;2023-04-09T07:01:03;102656.66;;;8.12;76.19
24013;BME280;12220;50.194;18.948;2023-04-09T07:03:13;102658.35;;;8.16;76.10
24013;BME280;12220;50.194;18.948;2023-04-09T07:05:14;102652.89;;;8.16;75.94
24013;BME280;12220;50.194;18.948;2023-04-09T07:07:15;102661.03;;;8.17;75.95
24013;BME280;12220;50.194;18.948;2023-04-09T07:09:22;102452.52;;;7.04;75.83
24013;BME280;12220;50.194;18.948;2023-04-09T07:11:27;102657.29;;;8.22;75.97
24013;BME280;12220;50.194;18.948;2023-04-09T07:13:28;102655.45;;;8.22;75.98
24013;BME280;12220;50.194;18.948;2023-04-09T07:15:31;102661.73;;;8.24;75.99
24013;BME280;12220;50.194;18.948;2023-04-09T07:17:33;102659.88;;;8.26;75.97
24013;BME280;12220;50.194;18.948;2023-04-09T07:19:42;102654.23;;;8.32;75.99
24013;BME280;12220;50.194;18.948;2023-04-09T07:21:43;102669.58;;;8.36;75.93
24013;BME280;12220;50.194;18.948;2023-04-09T07:23:47;102664.91;;;8.40;75.82
24013;BME280;12220;50.194;18.948;2023-04-09T07:25:48;102663.91;;;8.44;75.74
24013;BME280;12220;50.194;18.948;2023-04-09T07:27:57;102665.65;;;8.47;75.66
24013;BME280;12220;50.194;18.948;2023-04-09T07:30:01;102667.45;;;8.48;75.50
24013;BME280;12220;50.194;18.948;2023-04-09T07:32:06;102668.34;;;8.48;75.39
24013;BME280;12220;50.194;18.948;2023-04-09T07:34:07;102665.55;;;8.50;75.38
24013;BME280;12220;50.194;18.948;2023-04-09T07:36:12;102662.83;;;8.50;75.38
24013;BME280;12220;50.194;18.948;2023-04-09T07:38:14;102659.16;;;8.51;75.39
24013;BME280;12220;50.194;18.948;2023-04-09T07:40:16;102665.45;;;8.53;75.45
24013;BME280;12220;50.194;18.948;2023-04-09T07:42:17;102661.74;;;8.55;75.51
24013;BME280;12220;50.194;18.948;2023-04-09T07:44:27;102659.84;;;8.59;75.53
24013;BME280;12220;50.194;18.948;2023-04-09T07:46:29;102664.28;;;8.62;75.55
24013;BME280;12220;50.194;18.948;2023-04-09T07:48:31;102663.34;;;8.63;75.56
24013;BME280;12220;50.194;18.948;2023-04-09T07:50:32;102665.10;;;8.65;75.52
24013;BME280;12220;50.194;18.948;2023-04-09T07:52:42;102655.81;;;8.71;75.52
24013;BME280;12220;50.194;18.948;2023-04-09T07:54:43;102652.99;;;8.74;75.50
24013;BME280;12220;50.194;18.948;2023-04-09T07:56:47;102664.69;;;8.78;75.50
24013;BME280;12220;50.194;18.948;2023-04-09T07:58:49;102652.73;;;8.82;75.51
24013;BME280;12220;50.194;18.948;2023-04-09T08:00:57;102659.89;;;8.86;75.51
24013;BME280;12220;50.194;18.948;2023-04-09T08:02:59;102665.20;;;8.90;75.53
24013;BME280;12220;50.194;18.948;2023-04-09T08:05:03;102666.00;;;8.94;75.49
24013;BME280;12220;50.194;18.948;2023-04-09T08:07:05;102663.28;;;8.94;75.39
24013;BME280;12220;50.194;18.948;2023-04-09T08:09:12;102664.94;;;8.98;75.33
24013;BME280;12220;50.194;18.948;2023-04-09T08:11:16;102666.73;;;8.99;75.25
24013;BME280;12220;50.194;18.948;2023-04-09T08:13:24;102666.69;;;9.01;75.24
24013;BME280;12220;50.194;18.948;2023-04-09T08:15:26;102673.90;;;9.03;75.17
24013;BME280;12220;50.194;18.948;2023-04-09T08:17:30;102664.76;;;9.04;75.11
24013;BME280;12220;50.194;18.948;2023-04-09T08:19:32;102674.78;;;9.04;74.97
24013;BME280;12220;50.194;18.948;2023-04-09T08:21:35;102676.63;;;9.03;75.00
24013;BME280;12220;50.194;18.948;2023-04-09T08:23:37;102682.98;;;9.04;74.96
24013;BME280;12220;50.194;18.948;2023-04-09T08:25:45;102684.00;;;9.01;75.03
24013;BME280;12220;50.194;18.948;2023-04-09T08:27:47;102682.98;;;9.04;75.12
24013;BME280;12220;50.194;18.948;2023-04-09T08:29:48;102683.03;;;9.02;75.09
24013;BME280;12220;50.194;18.948;2023-04-09T08:31:49;102684.78;;;9.05;75.14
24013;BME280;12220;50.194;18.948;2023-04-09T08:34:00;102680.14;;;9.07;75.25
24013;BME280;12220;50.194;18.948;2023-04-09T08:36:07;102676.41;;;9.10;75.43
24013;BME280;12220;50.194;18.948;2023-04-09T08:38:08;102680.02;;;9.12;75.45
24013;BME280;12220;50.194;18.948;2023-04-09T08:40:10;102688.10;;;9.15;75.50
24013;BME280;12220;50.194;18.948;2023-04-09T08:42:16;102686.22;;;9.17;75.56
24013;BME280;12220;50.194;18.948;2023-04-09T08:44:18;102681.55;;;9.20;75.62
24013;BME280;12220;50.194;18.948;2023-04-09T08:46:22;102687.80;;;9.24;75.63
24013;BME280;12220;50.194;18.948;2023-04-09T08:48:24;102690.41;;;9.27;75.55
24013;BME280;12220;50.194;18.948;2023-04-09T08:50:31;102685.87;;;9.28;75.46
24013;BME280;12220;50.194;18.948;2023-04-09T08:52:36;102685.89;;;9.26;75.52
24013;BME280;12220;50.194;18.948;2023-04-09T08:54:38;102686.80;;;9.27;75.57
24013;BME280;12220;50.194;18.948;2023-04-09T08:56:42;102685.81;;;9.29;75.60
24013;BME280;12220;50.194;18.948;2023-04-09T08:58:46;102688.49;;;9.31;75.53
24013;BME280;12220;50.194;18.948;2023-04-09T09:00:47;102687.57;;;9.30;75.55
24013;BME280;12220;50.194;18.948;2023-04-09T09:05:07;102687.57;;;9.30;75.58
24013;BME280;12220;50.194;18.948;2023-04-09T09:07:08;102687.52;;;9.32;75.55
24013;BME280;12220;50.194;18.948;2023-04-09T09:09:14;102691.13;;;9.34;75.56
24013;BME280;12220;50.194;18.948;2023-04-09T09:11:25;102691.06;;;9.35;75.78
24013;BME280;12220;50.194;18.948;2023-04-09T09:13:32;102685.48;;;9.38;75.60
24013;BME280;12220;50.194;18.948;2023-04-09T09:15:34;102684.55;;;9.39;75.71
24013;BME280;12220;50.194;18.948;2023-04-09T09:22:25;102687.96;;;9.46;75.62
24013;BME280;12220;50.194;18.948;2023-04-09T09:24:27;102685.17;;;9.48;75.52
24013;BME280;12220;50.194;18.948;2023-04-09T09:26:29;102680.66;;;9.47;75.49
24013;BME280;12220;50.194;18.948;2023-04-09T09:28:34;102676.95;;;9.48;75.51
24013;BME280;12220;50.194;18.948;2023-04-09T09:30:40;102682.33;;;9.51;75.58
24013;BME280;12220;50.194;18.948;2023-04-09T09:32:42;102686.85;;;9.52;75.61
24013;BME280;12220;50.194;18.948;2023-04-09T09:36:56;102690.28;;;9.58;75.54
24013;BME280;12220;50.194;18.948;2023-04-09T09:38:58;102683.81;;;9.61;75.53
24013;BME280;12220;50.194;18.948;2023-04-09T09:41:17;102696.41;;;9.65;75.55
24013;BME280;12220;50.194;18.948;2023-04-09T09:43:19;102703.63;;;9.68;75.53
24013;BME280;12220;50.194;18.948;2023-04-09T09:45:21;102695.24;;;9.72;75.55
24013;BME280;12220;50.194;18.948;2023-04-09T09:47:23;102691.47;;;9.76;75.55
24013;BME280;12220;50.194;18.948;2023-04-09T09:49:32;102689.52;;;9.80;75.42
24013;BME280;12220;50.194;18.948;2023-04-09T09:51:36;102684.83;;;9.84;75.41
24013;BME280;12220;50.194;18.948;2023-04-09T09:53:46;102688.37;;;9.87;75.46
24013;BME280;12220;50.194;18.948;2023-04-09T09:55:52;102679.05;;;9.91;75.43
24013;BME280;12220;50.194;18.948;2023-04-09T09:58:07;102682.55;;;9.97;75.40
24013;BME280;12220;50.194;18.948;2023-04-09T10:00:12;102680.52;;;10.02;75.38
24013;BME280;12220;50.194;18.948;2023-04-09T10:02:18;102683.12;;;10.06;75.19
24013;BME280;12220;50.194;18.948;2023-04-09T10:04:22;102679.27;;;10.10;75.13
24013;BME280;12220;50.194;18.948;2023-04-09T10:06:24;102685.55;;;10.14;75.11
24013;BME280;12220;50.194;18.948;2023-04-09T10:08:29;102681.63;;;10.21;75.06
24013;BME280;12220;50.194;18.948;2023-04-09T10:10:38;102679.65;;;10.25;74.98
24013;BME280;12220;50.194;18.948;2023-04-09T10:12:43;102682.27;;;10.28;74.79
24013;BME280;12220;50.194;18.948;2023-04-09T10:14:45;102672.18;;;10.30;74.61
24013;BME280;12220;50.194;18.948;2023-04-09T10:16:47;102674.79;;;10.33;74.52
24013;BME280;12220;50.194;18.948;2023-04-09T10:18:49;102675.65;;;10.35;74.41
24013;BME280;12220;50.194;18.948;2023-04-09T10:20:58;102670.10;;;10.37;74.31
24013;BME280;12220;50.194;18.948;2023-04-09T10:23:04;102671.79;;;10.41;74.31
24013;BME280;12220;50.194;18.948;2023-04-09T10:25:07;102669.84;;;10.44;74.32
24013;BME280;12220;50.194;18.948;2023-04-09T10:27:13;102677.93;;;10.48;74.20
24013;BME280;12220;50.194;18.948;2023-04-09T10:29:15;102666.03;;;10.49;74.02
24013;BME280;12220;50.194;18.948;2023-04-09T10:31:19;102672.33;;;10.51;73.91
24013;BME280;12220;50.194;18.948;2023-04-09T10:33:22;102666.73;;;10.54;73.81
24013;BME280;12220;50.194;18.948;2023-04-09T10:35:27;102672.09;;;10.57;73.74
24013;BME280;12220;50.194;18.948;2023-04-09T10:37:29;102661.98;;;10.59;73.65
24013;BME280;12220;50.194;18.948;2023-04-09T10:39:38;102660.90;;;10.63;73.63
24013;BME280;12220;50.194;18.948;2023-04-09T10:41:43;102659.80;;;10.67;73.55
24013;BME280;12220;50.194;18.948;2023-04-09T10:43:56;102658.61;;;10.74;73.41
24013;BME280;12220;50.194;18.948;2023-04-09T10:45:59;102651.10;;;10.79;73.26
24013;BME280;12220;50.194;18.948;2023-04-09T10:48:01;102657.34;;;10.83;72.95
24013;BME280;12220;50.194;18.948;2023-04-09T10:52:28;102652.50;;;10.90;72.53
24013;BME280;12220;50.194;18.948;2023-04-09T10:54:37;102648.70;;;10.94;72.51
24013;BME280;12220;50.194;18.948;2023-04-09T10:56:38;102654.86;;;10.99;72.39
24013;BME280;12220;50.194;18.948;2023-04-09T10:58:40;102648.44;;;11.00;72.10
24013;BME280;12220;50.194;18.948;2023-04-09T11:00:43;102651.91;;;11.04;72.07
24013;BME280;12220;50.194;18.948;2023-04-09T11:05:18;102640.66;;;11.11;71.76
24013;BME280;12220;50.194;18.948;2023-04-09T11:07:32;102645.05;;;11.15;71.75
24013;BME280;12220;50.194;18.948;2023-04-09T11:09:36;102643.06;;;11.19;71.68
24013;BME280;12220;50.194;18.948;2023-04-09T11:11:39;102649.26;;;11.24;71.61
24013;BME280;12220;50.194;18.948;2023-04-09T11:13:40;102641.65;;;11.31;71.41
24013;BME280;12220;50.194;18.948;2023-04-09T11:15:46;102643.31;;;11.35;71.25